sensor_id;sensor_type;location;lat;lon;timestamp;P1;durP1;ratioP1;P2;durP2;ratioP2
45128;SDS011;35512;56.312;101.728;2023-02-02T00:01:51;0.80;;;0.80;;
45128;SDS011;35512;56.312;101.728;2023-02-02T00:04:24;0.80;;;0.80;;
45128;SDS011;35512;56.312;101.728;2023-02-02T00:06:54;0.80;;;0.80;;
45128;SDS011;35512;56.312;101.728;2023-02-02T00:09:27;0.80;;;0.80;;
45128;SDS011;35512;56.312;101.728;2023-02-02T00:11:57;0.80;;;0.80;;
45128;SDS011;35512;56.312;101.728;2023-02-02T00:14:28;0.80;;;0.80;;
45128;SDS011;35512;56.312;101.728;2023-02-02T00:16:57;0.80;;;0.80;;
45128;SDS011;35512;56.312;101.728;2023-02-02T00:19:27;0.80;;;0.80;;
45128;SDS011;35512;56.312;101.728;2023-02-02T00:22:00;0.80;;;0.80;;
45128;SDS011;35512;56.312;101.728;2023-02-02T00:24:29;0.80;;;0.80;;
45128;SDS011;35512;56.312;101.728;2023-02-02T00:26:58;0.80;;;0.80;;
45128;SDS011;35512;56.312;101.728;2023-02-02T00:29:28;0.80;;;0.80;;
45128;SDS011;35512;56.312;101.728;2023-02-02T00:31:58;0.70;;;0.70;;
45128;SDS011;35512;56.312;101.728;2023-02-02T00:34:27;0.80;;;0.80;;
45128;SDS011;35512;56.312;101.728;2023-02-02T00:36:56;0.80;;;0.80;;
45128;SDS011;35512;56.312;101.728;2023-02-02T00:39:25;0.80;;;0.80;;
45128;SDS011;35512;56.312;101.728;2023-02-02T00:41:54;0.80;;;0.80;;
45128;SDS011;35512;56.312;101.728;2023-02-02T00:44:23;0.80;;;0.80;;
45128;SDS011;35512;56.312;101.728;2023-02-02T00:47:10;0.80;;;0.80;;
45128;SDS011;35512;56.312;101.728;2023-02-02T00:49:39;0.70;;;0.70;;
45128;SDS011;35512;56.312;101.728;2023-02-02T00:52:08;0.80;;;0.80;;
45128;SDS011;35512;56.312;101.728;2023-02-02T00:54:37;0.80;;;0.80;;
45128;SDS011;35512;56.312;101.728;2023-02-02T00:57:06;0.80;;;0.80;;
45128;SDS011;35512;56.312;101.728;2023-02-02T00:59:35;0.80;;;0.80;;
45128;SDS011;35512;56.312;101.728;2023-02-02T01:02:05;0.80;;;0.80;;
45128;SDS011;35512;56.312;101.728;2023-02-02T01:04:34;0.80;;;0.80;;
45128;SDS011;35512;56.312;101.728;2023-02-02T01:07:03;0.80;;;0.80;;
45128;SDS011;35512;56.312;101.728;2023-02-02T01:09:32;0.80;;;0.80;;
45128;SDS011;35512;56.312;101.728;2023-02-02T01:12:01;0.70;;;0.70;;
45128;SDS011;35512;56.312;101.728;2023-02-02T01:14:31;0.80;;;0.80;;
45128;SDS011;35512;56.312;101.728;2023-02-02T01:17:00;0.80;;;0.80;;
45128;SDS011;35512;56.312;101.728;2023-02-02T01:19:29;0.80;;;0.80;;
45128;SDS011;35512;56.312;101.728;2023-02-02T01:21:58;0.80;;;0.80;;
45128;SDS011;35512;56.312;101.728;2023-02-02T01:24:29;0.80;;;0.80;;
45128;SDS011;35512;56.312;101.728;2023-02-02T01:26:59;0.80;;;0.80;;
45128;SDS011;35512;56.312;101.728;2023-02-02T01:29:30;0.80;;;0.80;;
45128;SDS011;35512;56.312;101.728;2023-02-02T01:31:59;0.80;;;0.80;;
45128;SDS011;35512;56.312;101.728;2023-02-02T01:34:28;0.80;;;0.80;;
45128;SDS011;35512;56.312;101.728;2023-02-02T01:36:56;0.80;;;0.80;;
45128;SDS011;35512;56.312;101.728;2023-02-02T01:39:25;0.80;;;0.80;;
45128;SDS011;35512;56.312;101.728;2023-02-02T01:41:55;0.80;;;0.80;;
45128;SDS011;35512;56.312;101.728;2023-02-02T01:47:36;0.80;;;0.80;;
45128;SDS011;35512;56.312;101.728;2023-02-02T01:50:09;0.80;;;0.80;;
45128;SDS011;35512;56.312;101.728;2023-02-02T01:52:42;0.80;;;0.80;;
45128;SDS011;35512;56.312;101.728;2023-02-02T01:55:16;0.80;;;0.80;;
45128;SDS011;35512;56.312;101.728;2023-02-02T01:57:50;0.80;;;0.80;;
45128;SDS011;35512;56.312;101.728;2023-02-02T02:00:25;0.80;;;0.80;;
45128;SDS011;35512;56.312;101.728;2023-02-02T02:03:00;0.70;;;0.70;;
45128;SDS011;35512;56.312;101.728;2023-02-02T02:05:58;0.80;;;0.80;;
45128;SDS011;35512;56.312;101.728;2023-02-02T02:08:46;0.80;;;0.80;;
45128;SDS011;35512;56.312;101.728;2023-02-02T02:11:22;0.80;;;0.80;;
45128;SDS011;35512;56.312;101.728;2023-02-02T02:13:53;0.80;;;0.80;;
45128;SDS011;35512;56.312;101.728;2023-02-02T02:32:22;0.80;;;0.80;;
45128;SDS011;35512;56.312;101.728;2023-02-02T02:37:38;0.80;;;0.80;;
45128;SDS011;35512;56.312;101.728;2023-02-02T02:42:59;0.80;;;0.80;;
45128;SDS011;35512;56.312;101.728;2023-02-02T02:45:34;0.80;;;0.80;;
45128;SDS011;35512;56.312;101.728;2023-02-02T02:48:04;0.80;;;0.80;;
45128;SDS011;35512;56.312;101.728;2023-02-02T02:50:37;0.70;;;0.70;;
45128;SDS011;35512;56.312;101.728;2023-02-02T02:53:09;0.70;;;0.70;;
45128;SDS011;35512;56.312;101.728;2023-02-02T02:55:45;0.80;;;0.80;;
45128;SDS011;35512;56.312;101.728;2023-02-02T02:58:19;0.80;;;0.80;;
45128;SDS011;35512;56.312;101.728;2023-02-02T03:01:16;0.70;;;0.70;;
45128;SDS011;35512;56.312;101.728;2023-02-02T03:07:00;0.70;;;0.70;;
45128;SDS011;35512;56.312;101.728;2023-02-02T03:10:06;0.80;;;0.80;;
45128;SDS011;35512;56.312;101.728;2023-02-02T03:12:43;0.70;;;0.70;;
45128;SDS011;35512;56.312;101.728;2023-02-02T03:15:17;0.70;;;0.70;;
45128;SDS011;35512;56.312;101.728;2023-02-02T03:17:47;0.60;;;0.60;;
45128;SDS011;35512;56.312;101.728;2023-02-02T03:20:18;0.50;;;0.50;;
45128;SDS011;35512;56.312;101.728;2023-02-02T03:22:47;0.50;;;0.50;;
45128;SDS011;35512;56.312;101.728;2023-02-02T03:25:16;0.50;;;0.50;;
45128;SDS011;35512;56.312;101.728;2023-02-02T03:27:44;0.60;;;0.60;;
45128;SDS011;35512;56.312;101.728;2023-02-02T03:30:14;0.60;;;0.60;;
45128;SDS011;35512;56.312;101.728;2023-02-02T03:32:43;0.60;;;0.60;;
45128;SDS011;35512;56.312;101.728;2023-02-02T03:35:12;0.68;;;0.68;;
45128;SDS011;35512;56.312;101.728;2023-02-02T03:37:41;0.60;;;0.60;;
45128;SDS011;35512;56.312;101.728;2023-02-02T03:40:10;0.60;;;0.60;;
45128;SDS011;35512;56.312;101.728;2023-02-02T03:42:39;0.60;;;0.60;;
45128;SDS011;35512;56.312;101.728;2023-02-02T03:45:08;0.70;;;0.70;;
45128;SDS011;35512;56.312;101.728;2023-02-02T03:47:37;0.70;;;0.70;;
45128;SDS011;35512;56.312;101.728;2023-02-02T03:50:06;0.70;;;0.70;;
45128;SDS011;35512;56.312;101.728;2023-02-02T03:52:36;0.60;;;0.60;;
45128;SDS011;35512;56.312;101.728;2023-02-02T03:55:05;0.60;;;0.60;;
45128;SDS011;35512;56.312;101.728;2023-02-02T03:57:34;0.60;;;0.60;;
45128;SDS011;35512;56.312;101.728;2023-02-02T04:00:04;0.70;;;0.70;;
45128;SDS011;35512;56.312;101.728;2023-02-02T04:02:38;0.80;;;0.80;;
45128;SDS011;35512;56.312;101.728;2023-02-02T04:05:07;0.70;;;0.70;;
45128;SDS011;35512;56.312;101.728;2023-02-02T04:07:36;0.70;;;0.70;;
45128;SDS011;35512;56.312;101.728;2023-02-02T04:10:05;0.60;;;0.60;;
45128;SDS011;35512;56.312;101.728;2023-02-02T04:12:34;0.50;;;0.50;;
45128;SDS011;35512;56.312;101.728;2023-02-02T04:15:03;0.60;;;0.60;;
45128;SDS011;35512;56.312;101.728;2023-02-02T04:17:33;0.60;;;0.60;;
45128;SDS011;35512;56.312;101.728;2023-02-02T04:20:03;0.60;;;0.60;;
45128;SDS011;35512;56.312;101.728;2023-02-02T04:22:33;0.60;;;0.60;;
45128;SDS011;35512;56.312;101.728;2023-02-02T04:25:02;0.60;;;0.60;;
45128;SDS011;35512;56.312;101.728;2023-02-02T04:27:31;0.50;;;0.50;;
45128;SDS011;35512;56.312;101.728;2023-02-02T04:30:01;0.47;;;0.47;;
45128;SDS011;35512;56.312;101.728;2023-02-02T04:32:30;0.40;;;0.40;;
45128;SDS011;35512;56.312;101.728;2023-02-02T04:34:59;0.40;;;0.40;;
45128;SDS011;35512;56.312;101.728;2023-02-02T04:37:29;0.40;;;0.40;;
45128;SDS011;35512;56.312;101.728;2023-02-02T04:39:59;0.50;;;0.50;;
45128;SDS011;35512;56.312;101.728;2023-02-02T04:42:29;0.40;;;0.40;;
45128;SDS011;35512;56.312;101.728;2023-02-02T04:44:59;0.40;;;0.40;;
45128;SDS011;35512;56.312;101.728;2023-02-02T04:47:29;0.40;;;0.40;;
45128;SDS011;35512;56.312;101.728;2023-02-02T04:49:58;0.50;;;0.50;;
45128;SDS011;35512;56.312;101.728;2023-02-02T04:52:28;0.50;;;0.50;;
45128;SDS011;35512;56.312;101.728;2023-02-02T04:54:56;0.60;;;0.60;;
45128;SDS011;35512;56.312;101.728;2023-02-02T04:57:25;0.50;;;0.50;;
45128;SDS011;35512;56.312;101.728;2023-02-02T04:59:54;0.50;;;0.50;;
45128;SDS011;35512;56.312;101.728;2023-02-02T05:02:24;0.52;;;0.52;;
45128;SDS011;35512;56.312;101.728;2023-02-02T05:04:53;0.60;;;0.60;;
45128;SDS011;35512;56.312;101.728;2023-02-02T05:07:22;0.50;;;0.50;;
45128;SDS011;35512;56.312;101.728;2023-02-02T05:09:51;0.60;;;0.60;;
45128;SDS011;35512;56.312;101.728;2023-02-02T05:12:20;0.50;;;0.50;;
45128;SDS011;35512;56.312;101.728;2023-02-02T05:14:49;0.50;;;0.50;;
45128;SDS011;35512;56.312;101.728;2023-02-02T05:17:17;0.60;;;0.60;;
45128;SDS011;35512;56.312;101.728;2023-02-02T05:19:46;0.60;;;0.60;;
45128;SDS011;35512;56.312;101.728;2023-02-02T05:22:15;0.57;;;0.57;;
45128;SDS011;35512;56.312;101.728;2023-02-02T05:24:44;0.60;;;0.60;;
45128;SDS011;35512;56.312;101.728;2023-02-02T05:27:13;0.70;;;0.70;;
45128;SDS011;35512;56.312;101.728;2023-02-02T05:29:42;0.60;;;0.60;;
45128;SDS011;35512;56.312;101.728;2023-02-02T05:32:11;0.70;;;0.70;;
45128;SDS011;35512;56.312;101.728;2023-02-02T05:34:40;0.50;;;0.50;;
45128;SDS011;35512;56.312;101.728;2023-02-02T05:37:09;0.50;;;0.50;;
45128;SDS011;35512;56.312;101.728;2023-02-02T05:39:38;0.60;;;0.60;;
45128;SDS011;35512;56.312;101.728;2023-02-02T05:42:07;0.60;;;0.60;;
45128;SDS011;35512;56.312;101.728;2023-02-02T05:44:36;0.50;;;0.50;;
45128;SDS011;35512;56.312;101.728;2023-02-02T05:47:04;0.60;;;0.60;;
45128;SDS011;35512;56.312;101.728;2023-02-02T05:49:33;0.60;;;0.60;;
45128;SDS011;35512;56.312;101.728;2023-02-02T05:52:02;0.50;;;0.50;;
45128;SDS011;35512;56.312;101.728;2023-02-02T05:54:32;0.60;;;0.60;;
45128;SDS011;35512;56.312;101.728;2023-02-02T05:57:01;0.50;;;0.50;;
45128;SDS011;35512;56.312;101.728;2023-02-02T05:59:30;0.50;;;0.50;;
45128;SDS011;35512;56.312;101.728;2023-02-02T06:02:00;0.55;;;0.55;;
45128;SDS011;35512;56.312;101.728;2023-02-02T06:04:30;0.40;;;0.40;;
45128;SDS011;35512;56.312;101.728;2023-02-02T06:06:59;0.50;;;0.50;;
45128;SDS011;35512;56.312;101.728;2023-02-02T06:09:28;0.50;;;0.50;;
45128;SDS011;35512;56.312;101.728;2023-02-02T06:11:56;0.50;;;0.50;;
45128;SDS011;35512;56.312;101.728;2023-02-02T06:14:25;0.50;;;0.50;;
45128;SDS011;35512;56.312;101.728;2023-02-02T06:16:54;0.50;;;0.50;;
45128;SDS011;35512;56.312;101.728;2023-02-02T06:19:23;0.50;;;0.50;;
45128;SDS011;35512;56.312;101.728;2023-02-02T06:21:52;0.50;;;0.50;;
45128;SDS011;35512;56.312;101.728;2023-02-02T06:24:21;0.50;;;0.50;;
45128;SDS011;35512;56.312;101.728;2023-02-02T06:26:51;0.50;;;0.50;;
45128;SDS011;35512;56.312;101.728;2023-02-02T06:29:20;0.40;;;0.40;;
45128;SDS011;35512;56.312;101.728;2023-02-02T06:31:49;0.40;;;0.40;;
45128;SDS011;35512;56.312;101.728;2023-02-02T06:34:18;0.40;;;0.40;;
45128;SDS011;35512;56.312;101.728;2023-02-02T06:36:47;0.40;;;0.40;;
45128;SDS011;35512;56.312;101.728;2023-02-02T06:39:16;0.40;;;0.40;;
45128;SDS011;35512;56.312;101.728;2023-02-02T06:41:45;0.40;;;0.40;;
45128;SDS011;35512;56.312;101.728;2023-02-02T06:44:15;0.40;;;0.40;;
45128;SDS011;35512;56.312;101.728;2023-02-02T06:46:46;0.40;;;0.40;;
45128;SDS011;35512;56.312;101.728;2023-02-02T06:49:15;0.40;;;0.40;;
45128;SDS011;35512;56.312;101.728;2023-02-02T06:51:45;0.50;;;0.50;;
45128;SDS011;35512;56.312;101.728;2023-02-02T06:54:15;0.40;;;0.40;;
45128;SDS011;35512;56.312;101.728;2023-02-02T06:56:44;0.40;;;0.40;;
45128;SDS011;35512;56.312;101.728;2023-02-02T06:59:13;0.50;;;0.50;;
45128;SDS011;35512;56.312;101.728;2023-02-02T07:01:42;0.47;;;0.47;;
45128;SDS011;35512;56.312;101.728;2023-02-02T07:04:11;0.50;;;0.50;;
45128;SDS011;35512;56.312;101.728;2023-02-02T07:06:40;0.50;;;0.50;;
45128;SDS011;35512;56.312;101.728;2023-02-02T07:09:09;0.50;;;0.50;;
45128;SDS011;35512;56.312;101.728;2023-02-02T07:11:38;0.60;;;0.60;;
45128;SDS011;35512;56.312;101.728;2023-02-02T07:14:11;0.60;;;0.60;;
45128;SDS011;35512;56.312;101.728;2023-02-02T07:16:40;0.60;;;0.60;;
45128;SDS011;35512;56.312;101.728;2023-02-02T07:19:09;0.60;;;0.60;;
45128;SDS011;35512;56.312;101.728;2023-02-02T07:21:38;0.60;;;0.60;;
45128;SDS011;35512;56.312;101.728;2023-02-02T07:24:07;0.60;;;0.60;;
45128;SDS011;35512;56.312;101.728;2023-02-02T07:26:36;0.70;;;0.70;;
45128;SDS011;35512;56.312;101.728;2023-02-02T07:29:06;0.60;;;0.60;;
45128;SDS011;35512;56.312;101.728;2023-02-02T07:31:38;0.70;;;0.70;;
45128;SDS011;35512;56.312;101.728;2023-02-02T07:34:08;0.60;;;0.60;;
45128;SDS011;35512;56.312;101.728;2023-02-02T07:36:37;0.60;;;0.60;;
45128;SDS011;35512;56.312;101.728;2023-02-02T07:39:06;0.60;;;0.60;;
45128;SDS011;35512;56.312;101.728;2023-02-02T07:41:35;0.60;;;0.60;;
45128;SDS011;35512;56.312;101.728;2023-02-02T07:44:13;0.60;;;0.60;;
45128;SDS011;35512;56.312;101.728;2023-02-02T07:46:44;0.60;;;0.60;;
45128;SDS011;35512;56.312;101.728;2023-02-02T07:49:15;0.60;;;0.60;;
45128;SDS011;35512;56.312;101.728;2023-02-02T07:51:45;0.57;;;0.57;;
45128;SDS011;35512;56.312;101.728;2023-02-02T07:54:16;0.60;;;0.60;;
45128;SDS011;35512;56.312;101.728;2023-02-02T07:56:45;0.60;;;0.60;;
45128;SDS011;35512;56.312;101.728;2023-02-02T07:59:14;0.60;;;0.60;;
45128;SDS011;35512;56.312;101.728;2023-02-02T08:01:43;0.60;;;0.60;;
45128;SDS011;35512;56.312;101.728;2023-02-02T08:04:13;0.60;;;0.60;;
45128;SDS011;35512;56.312;101.728;2023-02-02T08:06:42;0.70;;;0.70;;
45128;SDS011;35512;56.312;101.728;2023-02-02T08:09:12;0.63;;;0.63;;
45128;SDS011;35512;56.312;101.728;2023-02-02T08:11:40;0.70;;;0.70;;
45128;SDS011;35512;56.312;101.728;2023-02-02T08:14:10;0.70;;;0.70;;
45128;SDS011;35512;56.312;101.728;2023-02-02T08:16:41;0.60;;;0.60;;
45128;SDS011;35512;56.312;101.728;2023-02-02T08:19:10;0.60;;;0.60;;
45128;SDS011;35512;56.312;101.728;2023-02-02T08:21:39;0.60;;;0.60;;
45128;SDS011;35512;56.312;101.728;2023-02-02T08:24:08;0.60;;;0.60;;
45128;SDS011;35512;56.312;101.728;2023-02-02T08:26:37;0.60;;;0.60;;
45128;SDS011;35512;56.312;101.728;2023-02-02T08:29:06;0.50;;;0.50;;
45128;SDS011;35512;56.312;101.728;2023-02-02T08:31:37;0.60;;;0.60;;
45128;SDS011;35512;56.312;101.728;2023-02-02T08:34:10;0.55;;;0.55;;
45128;SDS011;35512;56.312;101.728;2023-02-02T08:36:41;0.60;;;0.60;;
45128;SDS011;35512;56.312;101.728;2023-02-02T08:39:10;0.60;;;0.60;;
45128;SDS011;35512;56.312;101.728;2023-02-02T08:41:40;0.60;;;0.60;;
45128;SDS011;35512;56.312;101.728;2023-02-02T08:44:11;0.60;;;0.60;;
45128;SDS011;35512;56.312;101.728;2023-02-02T08:46:42;0.60;;;0.60;;
45128;SDS011;35512;56.312;101.728;2023-02-02T08:49:12;0.60;;;0.60;;
45128;SDS011;35512;56.312;101.728;2023-02-02T08:51:41;0.60;;;0.60;;
45128;SDS011;35512;56.312;101.728;2023-02-02T08:54:11;0.60;;;0.60;;
45128;SDS011;35512;56.312;101.728;2023-02-02T08:56:40;0.50;;;0.50;;
45128;SDS011;35512;56.312;101.728;2023-02-02T08:59:09;0.60;;;0.60;;
45128;SDS011;35512;56.312;101.728;2023-02-02T09:01:39;0.60;;;0.60;;
45128;SDS011;35512;56.312;101.728;2023-02-02T09:04:10;0.60;;;0.60;;
45128;SDS011;35512;56.312;101.728;2023-02-02T09:06:43;0.60;;;0.60;;
45128;SDS011;35512;56.312;101.728;2023-02-02T09:09:14;0.60;;;0.60;;
45128;SDS011;35512;56.312;101.728;2023-02-02T09:11:43;0.68;;;0.68;;
45128;SDS011;35512;56.312;101.728;2023-02-02T09:14:12;0.70;;;0.70;;
45128;SDS011;35512;56.312;101.728;2023-02-02T09:16:43;0.70;;;0.70;;
45128;SDS011;35512;56.312;101.728;2023-02-02T09:19:12;0.70;;;0.70;;
45128;SDS011;35512;56.312;101.728;2023-02-02T09:21:41;0.70;;;0.70;;
45128;SDS011;35512;56.312;101.728;2023-02-02T09:24:11;0.70;;;0.70;;
45128;SDS011;35512;56.312;101.728;2023-02-02T09:26:41;0.70;;;0.70;;
45128;SDS011;35512;56.312;101.728;2023-02-02T09:29:12;0.70;;;0.70;;
45128;SDS011;35512;56.312;101.728;2023-02-02T09:31:43;0.70;;;0.70;;
45128;SDS011;35512;56.312;101.728;2023-02-02T09:34:13;0.70;;;0.70;;
45128;SDS011;35512;56.312;101.728;2023-02-02T09:36:43;0.70;;;0.70;;
45128;SDS011;35512;56.312;101.728;2023-02-02T09:39:12;0.70;;;0.70;;
45128;SDS011;35512;56.312;101.728;2023-02-02T09:55:15;0.70;;;0.70;;
45128;SDS011;35512;56.312;101.728;2023-02-02T09:58:38;0.70;;;0.70;;
45128;SDS011;35512;56.312;101.728;2023-02-02T10:01:24;0.70;;;0.70;;
45128;SDS011;35512;56.312;101.728;2023-02-02T10:06:39;0.70;;;0.70;;
45128;SDS011;35512;56.312;101.728;2023-02-02T10:14:53;0.70;;;0.70;;
45128;SDS011;35512;56.312;101.728;2023-02-02T10:20:20;0.70;;;0.70;;
45128;SDS011;35512;56.312;101.728;2023-02-02T10:23:17;0.70;;;0.70;;
45128;SDS011;35512;56.312;101.728;2023-02-02T10:26:03;0.70;;;0.70;;
45128;SDS011;35512;56.312;101.728;2023-02-02T10:45:50;0.70;;;0.70;;
45128;SDS011;35512;56.312;101.728;2023-02-02T10:48:25;0.70;;;0.70;;
45128;SDS011;35512;56.312;101.728;2023-02-02T10:51:10;0.80;;;0.80;;
45128;SDS011;35512;56.312;101.728;2023-02-02T10:53:56;0.70;;;0.70;;
45128;SDS011;35512;56.312;101.728;2023-02-02T10:56:30;0.80;;;0.80;;
45128;SDS011;35512;56.312;101.728;2023-02-02T10:59:13;0.70;;;0.70;;
45128;SDS011;35512;56.312;101.728;2023-02-02T11:01:49;0.70;;;0.70;;
45128;SDS011;35512;56.312;101.728;2023-02-02T11:04:19;0.70;;;0.70;;
45128;SDS011;35512;56.312;101.728;2023-02-02T11:07:09;0.70;;;0.70;;
45128;SDS011;35512;56.312;101.728;2023-02-02T11:09:47;0.70;;;0.70;;
45128;SDS011;35512;56.312;101.728;2023-02-02T11:12:32;0.70;;;0.70;;
45128;SDS011;35512;56.312;101.728;2023-02-02T11:15:08;0.70;;;0.70;;
45128;SDS011;35512;56.312;101.728;2023-02-02T11:17:55;0.70;;;0.70;;
45128;SDS011;35512;56.312;101.728;2023-02-02T11:20:39;0.70;;;0.70;;
45128;SDS011;35512;56.312;101.728;2023-02-02T11:23:09;0.70;;;0.70;;
45128;SDS011;35512;56.312;101.728;2023-02-02T11:25:55;0.70;;;0.70;;
45128;SDS011;35512;56.312;101.728;2023-02-02T11:28:29;0.70;;;0.70;;
45128;SDS011;35512;56.312;101.728;2023-02-02T11:31:01;0.70;;;0.70;;
45128;SDS011;35512;56.312;101.728;2023-02-02T11:33:32;0.70;;;0.70;;
45128;SDS011;35512;56.312;101.728;2023-02-02T11:36:04;0.70;;;0.70;;
45128;SDS011;35512;56.312;101.728;2023-02-02T11:38:44;0.70;;;0.70;;
45128;SDS011;35512;56.312;101.728;2023-02-02T11:41:13;0.70;;;0.70;;
45128;SDS011;35512;56.312;101.728;2023-02-02T11:43:47;0.70;;;0.70;;
45128;SDS011;35512;56.312;101.728;2023-02-02T11:49:01;0.70;;;0.70;;
45128;SDS011;35512;56.312;101.728;2023-02-02T11:51:55;0.70;;;0.70;;
45128;SDS011;35512;56.312;101.728;2023-02-02T11:54:32;0.70;;;0.70;;
45128;SDS011;35512;56.312;101.728;2023-02-02T11:57:06;0.80;;;0.80;;
45128;SDS011;35512;56.312;101.728;2023-02-02T11:59:41;0.70;;;0.70;;
45128;SDS011;35512;56.312;101.728;2023-02-02T12:04:49;0.80;;;0.80;;
45128;SDS011;35512;56.312;101.728;2023-02-02T12:07:28;0.80;;;0.80;;
45128;SDS011;35512;56.312;101.728;2023-02-02T12:10:00;0.70;;;0.70;;
45128;SDS011;35512;56.312;101.728;2023-02-02T12:12:49;0.80;;;0.80;;
45128;SDS011;35512;56.312;101.728;2023-02-02T12:15:35;0.70;;;0.70;;
45128;SDS011;35512;56.312;101.728;2023-02-02T12:21:43;0.70;;;0.70;;
45128;SDS011;35512;56.312;101.728;2023-02-02T12:24:29;0.75;;;0.75;;
45128;SDS011;35512;56.312;101.728;2023-02-02T12:27:08;0.80;;;0.80;;
45128;SDS011;35512;56.312;101.728;2023-02-02T12:29:57;0.73;;;0.73;;
45128;SDS011;35512;56.312;101.728;2023-02-02T12:44:01;0.80;;;0.80;;
45128;SDS011;35512;56.312;101.728;2023-02-02T12:50:15;0.80;;;0.80;;
45128;SDS011;35512;56.312;101.728;2023-02-02T12:52:39;0.80;;;0.80;;
45128;SDS011;35512;56.312;101.728;2023-02-02T13:06:09;0.70;;;0.70;;
45128;SDS011;35512;56.312;101.728;2023-02-02T13:08:50;0.70;;;0.70;;
45128;SDS011;35512;56.312;101.728;2023-02-02T13:11:34;0.73;;;0.73;;
45128;SDS011;35512;56.312;101.728;2023-02-02T13:14:21;0.70;;;0.70;;
45128;SDS011;35512;56.312;101.728;2023-02-02T13:17:08;0.80;;;0.80;;
45128;SDS011;35512;56.312;101.728;2023-02-02T13:19:59;0.70;;;0.70;;
45128;SDS011;35512;56.312;101.728;2023-02-02T13:22:35;0.70;;;0.70;;
45128;SDS011;35512;56.312;101.728;2023-02-02T13:25:13;0.70;;;0.70;;
45128;SDS011;35512;56.312;101.728;2023-02-02T13:27:55;0.80;;;0.80;;
45128;SDS011;35512;56.312;101.728;2023-02-02T13:33:01;0.70;;;0.70;;
45128;SDS011;35512;56.312;101.728;2023-02-02T13:38:22;0.80;;;0.80;;
45128;SDS011;35512;56.312;101.728;2023-02-02T13:40:53;0.80;;;0.80;;
45128;SDS011;35512;56.312;101.728;2023-02-02T13:46:05;0.80;;;0.80;;
45128;SDS011;35512;56.312;101.728;2023-02-02T13:51:39;0.80;;;0.80;;
45128;SDS011;35512;56.312;101.728;2023-02-02T14:05:22;0.80;;;0.80;;
45128;SDS011;35512;56.312;101.728;2023-02-02T14:13:24;0.80;;;0.80;;
45128;SDS011;35512;56.312;101.728;2023-02-02T14:19:03;0.80;;;0.80;;
45128;SDS011;35512;56.312;101.728;2023-02-02T14:26:55;0.80;;;0.80;;
45128;SDS011;35512;56.312;101.728;2023-02-02T14:41:31;0.80;;;0.80;;
45128;SDS011;35512;56.312;101.728;2023-02-02T14:44:05;0.80;;;0.80;;
45128;SDS011;35512;56.312;101.728;2023-02-02T14:46:38;0.70;;;0.70;;
45128;SDS011;35512;56.312;101.728;2023-02-02T14:49:13;0.80;;;0.80;;
45128;SDS011;35512;56.312;101.728;2023-02-02T14:51:48;0.80;;;0.80;;
45128;SDS011;35512;56.312;101.728;2023-02-02T14:54:24;0.98;;;0.90;;
45128;SDS011;35512;56.312;101.728;2023-02-02T14:56:59;0.80;;;0.80;;
45128;SDS011;35512;56.312;101.728;2023-02-02T14:59:49;0.82;;;0.82;;
45128;SDS011;35512;56.312;101.728;2023-02-02T15:02:28;0.80;;;0.80;;
45128;SDS011;35512;56.312;101.728;2023-02-02T15:07:52;0.80;;;0.80;;
45128;SDS011;35512;56.312;101.728;2023-02-02T15:13:30;0.80;;;0.80;;
45128;SDS011;35512;56.312;101.728;2023-02-02T15:16:24;1.00;;;0.90;;
45128;SDS011;35512;56.312;101.728;2023-02-02T15:19:05;0.95;;;0.90;;
45128;SDS011;35512;56.312;101.728;2023-02-02T15:21:41;0.80;;;0.80;;
45128;SDS011;35512;56.312;101.728;2023-02-02T15:24:17;0.80;;;0.80;;
45128;SDS011;35512;56.312;101.728;2023-02-02T15:26:50;0.80;;;0.80;;
45128;SDS011;35512;56.312;101.728;2023-02-02T15:29:33;0.80;;;0.80;;
45128;SDS011;35512;56.312;101.728;2023-02-02T15:32:14;0.80;;;0.80;;
45128;SDS011;35512;56.312;101.728;2023-02-02T15:34:48;0.80;;;0.80;;
45128;SDS011;35512;56.312;101.728;2023-02-02T15:37:25;0.80;;;0.80;;
45128;SDS011;35512;56.312;101.728;2023-02-02T15:40:01;0.80;;;0.80;;
45128;SDS011;35512;56.312;101.728;2023-02-02T15:47:57;1.00;;;0.90;;
45128;SDS011;35512;56.312;101.728;2023-02-02T15:50:27;0.80;;;0.80;;
45128;SDS011;35512;56.312;101.728;2023-02-02T15:52:56;0.80;;;0.80;;
45128;SDS011;35512;56.312;101.728;2023-02-02T15:55:30;0.80;;;0.80;;
45128;SDS011;35512;56.312;101.728;2023-02-02T15:58:01;0.80;;;0.80;;
45128;SDS011;35512;56.312;101.728;2023-02-02T16:00:32;0.80;;;0.80;;
45128;SDS011;35512;56.312;101.728;2023-02-02T16:03:08;0.80;;;0.80;;
45128;SDS011;35512;56.312;101.728;2023-02-02T16:05:52;0.80;;;0.80;;
45128;SDS011;35512;56.312;101.728;2023-02-02T16:08:24;0.80;;;0.80;;
45128;SDS011;35512;56.312;101.728;2023-02-02T16:13:54;0.80;;;0.80;;
45128;SDS011;35512;56.312;101.728;2023-02-02T16:16:36;1.00;;;0.90;;
45128;SDS011;35512;56.312;101.728;2023-02-02T16:21:37;0.80;;;0.80;;
45128;SDS011;35512;56.312;101.728;2023-02-02T16:24:47;0.80;;;0.80;;
45128;SDS011;35512;56.312;101.728;2023-02-02T16:27:20;0.80;;;0.80;;
45128;SDS011;35512;56.312;101.728;2023-02-02T16:29:58;0.70;;;0.70;;
45128;SDS011;35512;56.312;101.728;2023-02-02T16:32:32;1.00;;;0.90;;
45128;SDS011;35512;56.312;101.728;2023-02-02T16:35:05;0.80;;;0.80;;
45128;SDS011;35512;56.312;101.728;2023-02-02T16:41:11;0.80;;;0.80;;
45128;SDS011;35512;56.312;101.728;2023-02-02T16:43:51;0.80;;;0.80;;
45128;SDS011;35512;56.312;101.728;2023-02-02T16:49:17;0.88;;;0.88;;
45128;SDS011;35512;56.312;101.728;2023-02-02T16:54:49;0.80;;;0.80;;
45128;SDS011;35512;56.312;101.728;2023-02-02T16:57:21;0.80;;;0.80;;
45128;SDS011;35512;56.312;101.728;2023-02-02T16:59:57;0.80;;;0.80;;
45128;SDS011;35512;56.312;101.728;2023-02-02T17:02:32;0.80;;;0.80;;
45128;SDS011;35512;56.312;101.728;2023-02-02T17:05:21;0.80;;;0.80;;
45128;SDS011;35512;56.312;101.728;2023-02-02T17:07:56;0.80;;;0.80;;
45128;SDS011;35512;56.312;101.728;2023-02-02T17:10:34;0.80;;;0.80;;
45128;SDS011;35512;56.312;101.728;2023-02-02T17:15:58;0.80;;;0.80;;
45128;SDS011;35512;56.312;101.728;2023-02-02T17:18:27;0.80;;;0.80;;
45128;SDS011;35512;56.312;101.728;2023-02-02T17:20:57;0.80;;;0.80;;
45128;SDS011;35512;56.312;101.728;2023-02-02T17:23:31;0.80;;;0.80;;
45128;SDS011;35512;56.312;101.728;2023-02-02T17:26:06;0.80;;;0.80;;
45128;SDS011;35512;56.312;101.728;2023-02-02T17:28:38;0.80;;;0.80;;
45128;SDS011;35512;56.312;101.728;2023-02-02T17:31:09;0.80;;;0.80;;
45128;SDS011;35512;56.312;101.728;2023-02-02T17:33:41;0.80;;;0.80;;
45128;SDS011;35512;56.312;101.728;2023-02-02T17:36:13;0.80;;;0.80;;
45128;SDS011;35512;56.312;101.728;2023-02-02T17:38:41;0.85;;;0.85;;
45128;SDS011;35512;56.312;101.728;2023-02-02T17:41:10;0.80;;;0.80;;
45128;SDS011;35512;56.312;101.728;2023-02-02T17:43:41;0.80;;;0.80;;
45128;SDS011;35512;56.312;101.728;2023-02-02T17:46:10;0.80;;;0.80;;
45128;SDS011;35512;56.312;101.728;2023-02-02T17:48:40;0.80;;;0.80;;
45128;SDS011;35512;56.312;101.728;2023-02-02T17:51:15;0.80;;;0.80;;
45128;SDS011;35512;56.312;101.728;2023-02-02T17:53:44;0.80;;;0.80;;
45128;SDS011;35512;56.312;101.728;2023-02-02T17:56:13;0.80;;;0.80;;